SCEL/SCL METAR and TAF weather

Enter ICAO airport designator
Station Type Date Time Source
SCEL METAR 2019/02/21 16:00 UTC NOAA

SCEL 211600Z 16012KT 130V190 CAVOK 22/14 Q1016 NOSIG


Station Type Date Time Source
SCEL Decoded METAR 2019/02/21 16:00 UTC NOAA

Pudahuel, Chile (SCEL) 33-23S 070-47W 476M
Feb 21, 2019 - 11:00 AM EST / 2019.02.21 1600 UTC
Wind: from the SSE (160 degrees) at 14 MPH (12 KT) (direction variable):0
Visibility: greater than 7 mile(s):0
Temperature: 71 F (22 C)
Dew Point: 57 F (14 C)
Relative Humidity: 60%
Pressure (altimeter): 30.00 in. Hg (1016 hPa)
ob: SCEL 211600Z 16012KT 130V190 CAVOK 22/14 Q1016 NOSIG
cycle: 16

Station Type Date Time Source
SCEL TAF 2019/02/21 12:03 UTC NOAA

TAF SCEL 211030Z 2112/2212 00000KT CAVOK TX29/2119Z TN15/2211Z
TEMPO 2112/2114 VRB02KT 5000 BR SCT005
BECMG 2115/2117 18008KT 8000 FEW010
BECMG 2118/2120 19012KT CAVOK
BECMG 2202/2204 16005KT


Example: see airport list